createdAt,value
2023-02-19T00:01:40.278Z,36.10
2023-02-19T00:04:08.935Z,36.50
2023-02-19T00:06:37.113Z,36.50
2023-02-19T00:09:06.555Z,36.70
2023-02-19T00:11:35.335Z,37.30
2023-02-19T00:14:03.543Z,36.70
2023-02-19T00:16:32.758Z,36.60
2023-02-19T00:19:04.387Z,36.50
2023-02-19T00:21:32.476Z,36.30
2023-02-19T00:24:04.886Z,36.10
2023-02-19T00:26:34.408Z,36.00
2023-02-19T00:29:02.540Z,35.80
2023-02-19T00:31:32.986Z,35.90
2023-02-19T00:34:03.199Z,36.30
2023-02-19T00:36:31.466Z,36.40
2023-02-19T00:38:59.482Z,36.60
2023-02-19T00:41:27.568Z,37.00
2023-02-19T00:43:57.769Z,36.80
2023-02-19T00:46:26.992Z,36.60
2023-02-19T00:48:55.241Z,36.50
2023-02-19T00:51:24.542Z,36.30
2023-02-19T00:53:52.786Z,36.10
2023-02-19T00:56:20.844Z,36.00
2023-02-19T00:58:49.079Z,35.80
2023-02-19T01:01:18.643Z,35.70
2023-02-19T01:03:46.756Z,36.10
2023-02-19T01:06:15.960Z,36.30
2023-02-19T01:08:44.063Z,36.60
2023-02-19T01:11:12.622Z,36.80
2023-02-19T01:13:40.969Z,37.10
2023-02-19T01:16:10.285Z,37.40
2023-02-19T01:18:40.202Z,37.50
2023-02-19T01:21:08.994Z,37.00
2023-02-19T01:23:37.283Z,36.70
2023-02-19T01:26:06.895Z,36.60
2023-02-19T01:28:35.080Z,36.40
2023-02-19T01:31:03.754Z,36.20
2023-02-19T01:33:31.905Z,36.10
2023-02-19T01:36:01.583Z,36.00
2023-02-19T01:38:29.664Z,36.10
2023-02-19T01:40:58.197Z,36.50
2023-02-19T01:43:26.216Z,36.70
2023-02-19T01:45:54.317Z,37.00
2023-02-19T01:48:23.861Z,37.30
2023-02-19T01:50:53.434Z,36.80
2023-02-19T01:53:24.392Z,36.70
2023-02-19T01:55:53.689Z,36.50
2023-02-19T01:58:21.828Z,36.30
2023-02-19T02:00:51.951Z,36.20
2023-02-19T02:03:20.193Z,36.00
2023-02-19T02:05:52.683Z,35.80
2023-02-19T02:08:38.035Z,35.90
2023-02-19T02:11:07.750Z,36.30
2023-02-19T02:13:35.899Z,36.60
2023-02-19T02:16:13.732Z,36.70
2023-02-19T02:18:47.928Z,37.10
2023-02-19T02:21:35.647Z,36.80
2023-02-19T02:24:13.146Z,36.60
2023-02-19T02:26:48.388Z,36.40
2023-02-19T02:29:33.196Z,36.20
2023-02-19T02:32:03.883Z,36.10
2023-02-19T02:34:35.323Z,36.00
2023-02-19T02:37:03.431Z,35.80
2023-02-19T02:39:32.277Z,36.00
2023-02-19T02:42:18.326Z,36.20
2023-02-19T02:45:06.596Z,36.40
2023-02-19T02:47:45.068Z,36.80
2023-02-19T02:50:15.665Z,37.10
2023-02-19T02:53:01.538Z,36.60
2023-02-19T02:55:31.206Z,36.50
2023-02-19T02:57:59.314Z,36.20
2023-02-19T03:00:47.470Z,36.10
2023-02-19T03:03:15.891Z,36.00
2023-02-19T03:05:52.728Z,35.80
2023-02-19T03:08:23.781Z,35.70
2023-02-19T03:10:52.942Z,36.10
2023-02-19T03:13:40.798Z,36.20
2023-02-19T03:16:29.301Z,36.50
2023-02-19T03:19:16.810Z,36.80
2023-02-19T03:21:44.914Z,37.10
2023-02-19T03:24:45.204Z,37.50
2023-02-19T03:27:13.245Z,37.20
2023-02-19T03:29:41.722Z,36.80
2023-02-19T03:32:11.205Z,36.60
2023-02-19T03:34:42.880Z,36.40
2023-02-19T03:37:12.611Z,36.20
2023-02-19T03:39:44.465Z,36.10
2023-02-19T03:42:18.860Z,35.90
2023-02-19T03:44:48.096Z,36.10
2023-02-19T03:47:17.364Z,36.20
2023-02-19T03:49:49.086Z,36.50
2023-02-19T03:52:19.562Z,36.90
2023-02-19T03:54:49.208Z,36.90
2023-02-19T03:57:19.124Z,36.90
2023-02-19T03:59:49.878Z,36.70
2023-02-19T04:02:19.668Z,36.50
2023-02-19T04:04:50.849Z,36.30
2023-02-19T04:07:18.866Z,36.20
2023-02-19T04:09:48.044Z,36.00
2023-02-19T04:12:16.007Z,35.90
2023-02-19T04:14:45.089Z,35.80
2023-02-19T04:17:16.336Z,36.10
2023-02-19T04:19:44.420Z,36.40
2023-02-19T04:22:13.968Z,36.50
2023-02-19T04:24:43.736Z,36.90
2023-02-19T04:27:11.657Z,37.00
2023-02-19T04:29:39.596Z,36.50
2023-02-19T04:32:07.509Z,36.50
2023-02-19T04:34:35.631Z,36.30
2023-02-19T04:37:03.672Z,36.10
2023-02-19T04:39:32.913Z,36.00
2023-02-19T04:42:00.813Z,35.90
2023-02-19T04:44:28.899Z,35.70
2023-02-19T04:46:56.981Z,36.10
2023-02-19T04:49:24.948Z,36.30
2023-02-19T04:51:52.942Z,36.40
2023-02-19T04:54:20.832Z,36.80
2023-02-19T04:56:51.351Z,37.10
2023-02-19T04:59:19.424Z,36.70
2023-02-19T05:01:47.446Z,36.50
2023-02-19T05:04:15.493Z,36.30
2023-02-19T05:06:43.481Z,36.60
2023-02-19T05:09:11.492Z,36.00
2023-02-19T05:11:39.453Z,35.90
2023-02-19T05:14:08.746Z,36.40
2023-02-19T05:16:36.813Z,35.70
2023-02-19T05:19:04.732Z,36.20
2023-02-19T05:21:32.641Z,36.20
2023-02-19T05:24:01.555Z,36.50
2023-02-19T05:26:31.194Z,36.90
2023-02-19T05:28:59.179Z,37.10
2023-02-19T05:31:28.706Z,37.50
2023-02-19T05:33:56.774Z,37.10
2023-02-19T05:36:24.851Z,36.90
2023-02-19T05:38:53.767Z,36.60
2023-02-19T05:41:22.563Z,36.50
2023-02-19T05:43:50.631Z,36.20
2023-02-19T05:46:19.741Z,36.10
2023-02-19T05:48:49.305Z,36.00
2023-02-19T05:51:18.248Z,35.80
2023-02-19T05:53:46.405Z,36.20
2023-02-19T05:56:27.974Z,36.40
2023-02-19T05:58:56.220Z,36.70
2023-02-19T06:01:25.314Z,36.80
2023-02-19T06:03:57.237Z,37.10
2023-02-19T06:06:25.668Z,36.70
2023-02-19T06:08:53.662Z,36.50
2023-02-19T06:11:21.697Z,36.40
2023-02-19T06:13:50.523Z,36.20
2023-02-19T06:16:18.697Z,36.10
2023-02-19T06:18:46.851Z,35.90
2023-02-19T06:21:16.468Z,35.80
2023-02-19T06:23:44.559Z,36.00
2023-02-19T06:26:13.531Z,36.20
2023-02-19T06:28:42.024Z,36.30
2023-02-19T06:31:10.662Z,36.80
2023-02-19T06:33:40.444Z,37.10
2023-02-19T06:36:11.164Z,36.60
2023-02-19T06:38:40.587Z,36.50
2023-02-19T06:41:09.209Z,36.40
2023-02-19T06:43:37.470Z,36.10
2023-02-19T06:46:06.506Z,36.10
2023-02-19T06:48:34.624Z,35.90
2023-02-19T06:51:02.757Z,35.80
2023-02-19T06:53:31.258Z,35.80
2023-02-19T06:56:01.014Z,36.10
2023-02-19T06:58:29.296Z,36.40
2023-02-19T07:00:57.831Z,36.60
2023-02-19T07:03:26.443Z,36.80
2023-02-19T07:05:54.490Z,36.70
2023-02-19T07:08:22.557Z,36.60
2023-02-19T07:10:55.571Z,36.40
2023-02-19T07:13:25.114Z,36.20
2023-02-19T07:15:53.209Z,36.00
2023-02-19T07:18:21.219Z,35.90
2023-02-19T07:20:49.221Z,35.70
2023-02-19T07:23:17.257Z,35.70
2023-02-19T07:25:45.324Z,36.10
2023-02-19T07:28:13.729Z,36.30
2023-02-19T07:30:43.133Z,36.50
2023-02-19T07:33:11.731Z,36.60
2023-02-19T07:35:39.738Z,37.10
2023-02-19T07:38:07.746Z,37.40
2023-02-19T07:40:36.966Z,37.40
2023-02-19T07:43:05.065Z,36.90
2023-02-19T07:45:33.110Z,36.70
2023-02-19T07:48:02.538Z,36.60
2023-02-19T07:50:30.549Z,36.40
2023-02-19T07:52:58.736Z,36.20
2023-02-19T07:55:26.768Z,36.00
2023-02-19T07:57:54.783Z,35.90
2023-02-19T08:00:23.098Z,36.10
2023-02-19T08:03:03.063Z,36.40
2023-02-19T08:05:33.694Z,36.50
2023-02-19T08:08:01.909Z,37.00
2023-02-19T08:10:47.175Z,37.30
2023-02-19T08:13:22.731Z,36.80
2023-02-19T08:15:57.745Z,36.60
2023-02-19T08:18:30.837Z,36.40
2023-02-19T08:21:00.348Z,36.20
2023-02-19T08:23:28.413Z,36.10
2023-02-19T08:25:58.429Z,35.90
2023-02-19T08:28:26.429Z,35.70
2023-02-19T08:30:54.673Z,36.00
2023-02-19T08:33:22.714Z,36.30
2023-02-19T08:35:50.752Z,36.50
2023-02-19T08:38:20.134Z,36.80
2023-02-19T08:40:48.183Z,37.20
2023-02-19T08:43:17.273Z,36.70
2023-02-19T08:45:45.882Z,36.50
2023-02-19T08:48:14.094Z,36.40
2023-02-19T08:50:42.165Z,36.20
2023-02-19T08:53:10.266Z,36.10
2023-02-19T08:55:40.070Z,35.90
2023-02-19T08:58:08.101Z,35.80
2023-02-19T09:00:36.112Z,35.70
2023-02-19T09:03:04.181Z,36.20
2023-02-19T09:05:32.226Z,36.40
2023-02-19T09:08:00.528Z,36.60
2023-02-19T09:10:28.623Z,36.90
2023-02-19T09:12:58.210Z,36.90
2023-02-19T09:15:26.338Z,36.50
2023-02-19T09:17:54.429Z,36.40
2023-02-19T09:20:22.537Z,36.20
2023-02-19T09:22:50.607Z,36.30
2023-02-19T09:25:18.749Z,35.90
2023-02-19T09:27:46.789Z,35.90
2023-02-19T09:30:16.454Z,35.70
2023-02-19T09:32:44.525Z,35.90
2023-02-19T09:35:12.559Z,36.20
2023-02-19T09:37:40.564Z,36.40
2023-02-19T09:40:09.087Z,36.60
2023-02-19T09:42:37.073Z,36.90
2023-02-19T09:45:05.385Z,37.30
2023-02-19T09:47:35.024Z,37.50
2023-02-19T09:50:06.529Z,36.90
2023-02-19T09:52:36.543Z,36.70
2023-02-19T09:55:14.581Z,36.50
2023-02-19T09:57:42.990Z,36.30
2023-02-19T10:00:20.934Z,36.10
2023-02-19T10:02:52.454Z,36.10
2023-02-19T10:05:20.635Z,35.90
2023-02-19T10:07:50.280Z,36.10
2023-02-19T10:10:28.141Z,36.40
2023-02-19T10:12:57.430Z,36.60
2023-02-19T10:15:28.378Z,36.90
2023-02-19T10:17:58.210Z,37.20
2023-02-19T10:20:28.063Z,36.70
2023-02-19T10:23:01.863Z,36.60
2023-02-19T10:25:30.015Z,36.30
2023-02-19T10:27:59.184Z,36.20
2023-02-19T10:30:29.407Z,36.10
2023-02-19T10:33:04.225Z,35.90
2023-02-19T10:35:32.930Z,35.70
2023-02-19T10:38:01.193Z,35.90
2023-02-19T10:40:29.230Z,36.20
2023-02-19T10:42:58.880Z,36.50
2023-02-19T10:45:30.586Z,36.60
2023-02-19T10:47:58.764Z,37.50
2023-02-19T10:50:30.508Z,36.70
2023-02-19T10:52:59.689Z,36.50
2023-02-19T10:55:30.576Z,36.30
2023-02-19T10:57:58.678Z,36.10
2023-02-19T11:00:28.961Z,36.00
2023-02-19T11:03:15.528Z,35.90
2023-02-19T11:05:56.175Z,35.80
2023-02-19T11:08:24.427Z,35.70
2023-02-19T11:10:52.520Z,36.20
2023-02-19T11:13:25.019Z,36.40
2023-02-19T11:15:53.167Z,36.60
2023-02-19T11:18:23.597Z,36.90
2023-02-19T11:20:54.871Z,36.70
2023-02-19T11:23:26.142Z,36.40
2023-02-19T11:25:54.445Z,36.30
2023-02-19T11:28:31.949Z,36.10
2023-02-19T11:31:23.534Z,36.00
2023-02-19T11:33:56.287Z,35.80
2023-02-19T11:36:30.861Z,35.60
2023-02-19T11:39:00.862Z,35.70
2023-02-19T11:41:45.197Z,36.20
2023-02-19T11:44:19.525Z,36.30
2023-02-19T11:46:50.485Z,36.50
2023-02-19T11:49:24.753Z,36.90
2023-02-19T11:52:01.133Z,37.30
2023-02-19T11:54:37.414Z,37.50
2023-02-19T11:57:09.283Z,36.90
2023-02-19T11:59:40.249Z,36.60
2023-02-19T12:02:28.302Z,36.50
2023-02-19T12:05:18.960Z,36.30
2023-02-19T12:07:58.881Z,36.10
2023-02-19T12:10:28.767Z,35.90
2023-02-19T12:13:02.263Z,35.70
2023-02-19T12:15:39.454Z,36.20
2023-02-19T12:18:30.541Z,36.30
2023-02-19T12:21:04.720Z,36.50
2023-02-19T12:24:01.479Z,36.90
2023-02-19T12:26:32.545Z,36.90
2023-02-19T12:29:20.718Z,36.60
2023-02-19T12:32:17.999Z,36.40
2023-02-19T12:35:04.405Z,36.20
2023-02-19T12:37:37.500Z,36.00
2023-02-19T12:40:16.653Z,35.90
2023-02-19T12:42:54.763Z,35.70
2023-02-19T12:45:25.623Z,35.90
2023-02-19T12:47:59.872Z,36.20
2023-02-19T12:50:28.301Z,36.40
2023-02-19T12:52:58.223Z,37.30
2023-02-19T12:55:29.218Z,37.00
2023-02-19T12:57:57.333Z,36.60
2023-02-19T13:00:30.740Z,36.50
2023-02-19T13:03:01.560Z,36.30
2023-02-19T13:05:37.114Z,36.10
2023-02-19T13:08:06.050Z,35.90
2023-02-19T13:10:39.296Z,35.80
2023-02-19T13:13:08.074Z,35.60
2023-02-19T13:15:37.928Z,35.80
2023-02-19T13:18:06.606Z,36.20
2023-02-19T13:20:35.977Z,36.20
2023-02-19T13:23:25.387Z,36.40
2023-02-19T13:26:03.542Z,36.90
2023-02-19T13:28:43.339Z,36.60
2023-02-19T13:31:21.934Z,36.40
2023-02-19T13:33:57.442Z,36.20
2023-02-19T13:36:26.302Z,36.00
2023-02-19T13:38:57.188Z,35.90
2023-02-19T13:41:31.023Z,35.90
2023-02-19T13:44:01.426Z,35.60
2023-02-19T13:46:35.569Z,35.80
2023-02-19T13:49:25.938Z,36.10
2023-02-19T13:51:54.335Z,36.30
2023-02-19T13:54:24.728Z,36.50
2023-02-19T13:57:20.731Z,36.80
2023-02-19T13:59:48.790Z,37.30
2023-02-19T14:02:35.192Z,37.30
2023-02-19T14:05:05.423Z,36.80
2023-02-19T14:07:38.705Z,36.60
2023-02-19T14:10:09.906Z,36.40
2023-02-19T14:12:39.317Z,36.20
2023-02-19T14:15:43.927Z,36.10
2023-02-19T14:18:43.886Z,36.00
2023-02-19T14:21:19.636Z,35.80
2023-02-19T14:23:49.251Z,36.30
2023-02-19T14:26:17.756Z,36.40
2023-02-19T14:28:47.213Z,36.50
2023-02-19T14:31:28.096Z,36.90
2023-02-19T14:33:56.944Z,36.90
2023-02-19T14:36:31.549Z,36.60
2023-02-19T14:39:00.250Z,36.30
2023-02-19T14:41:28.736Z,36.20
2023-02-19T14:43:58.208Z,36.10
2023-02-19T14:46:30.638Z,35.90
2023-02-19T14:49:00.477Z,35.80
2023-02-19T14:51:31.574Z,35.70
2023-02-19T14:53:59.736Z,36.10
2023-02-19T14:56:30.028Z,36.30
2023-02-19T14:59:10.235Z,37.20
2023-02-19T15:01:38.436Z,36.80
2023-02-19T15:04:06.660Z,36.90
2023-02-19T15:06:35.455Z,36.50
2023-02-19T15:09:04.992Z,36.30
2023-02-19T15:11:33.090Z,36.20
2023-02-19T15:14:02.752Z,36.10
2023-02-19T15:16:32.425Z,35.90
2023-02-19T15:19:00.693Z,35.80
2023-02-19T15:21:29.892Z,35.60
2023-02-19T15:23:58.636Z,35.90
2023-02-19T15:26:32.352Z,36.20
2023-02-19T15:29:01.383Z,36.40
2023-02-19T15:31:29.670Z,36.60
2023-02-19T15:33:59.470Z,37.10
2023-02-19T15:36:29.298Z,36.60
2023-02-19T15:38:58.530Z,36.50
2023-02-19T15:41:29.517Z,36.20
2023-02-19T15:44:01.763Z,36.10
2023-02-19T15:46:29.850Z,35.90
2023-02-19T15:49:02.535Z,35.90
2023-02-19T15:51:33.104Z,35.70
2023-02-19T15:54:04.174Z,35.70
2023-02-19T15:56:33.020Z,36.10
2023-02-19T15:59:01.782Z,36.50
2023-02-19T16:01:30.595Z,36.40
2023-02-19T16:03:58.890Z,36.80
2023-02-19T16:06:28.333Z,37.20
2023-02-19T16:09:03.769Z,37.40
2023-02-19T16:11:36.190Z,37.10
2023-02-19T16:14:29.378Z,36.70
2023-02-19T16:16:58.423Z,36.50
2023-02-19T16:19:28.569Z,36.30
2023-02-19T16:21:58.137Z,36.20
2023-02-19T16:24:30.740Z,36.10
2023-02-19T16:26:58.833Z,35.90
2023-02-19T16:29:27.978Z,36.00
2023-02-19T16:31:57.420Z,36.30
2023-02-19T16:34:34.319Z,36.50
2023-02-19T16:37:04.701Z,36.70
2023-02-19T16:39:33.338Z,37.10
2023-02-19T16:42:19.570Z,36.80
2023-02-19T16:44:48.164Z,36.60
2023-02-19T16:47:30.520Z,36.30
2023-02-19T16:49:59.421Z,36.30
2023-02-19T16:52:28.937Z,36.10
2023-02-19T16:54:57.090Z,36.00
2023-02-19T16:57:25.298Z,35.80
2023-02-19T16:59:53.432Z,35.70
2023-02-19T17:02:22.707Z,36.20
2023-02-19T17:04:51.795Z,36.30
2023-02-19T17:07:20.063Z,36.60
2023-02-19T17:09:49.604Z,37.00
2023-02-19T17:12:24.721Z,36.80
2023-02-19T17:14:52.848Z,36.50
2023-02-19T17:17:21.244Z,36.30
2023-02-19T17:19:49.478Z,36.20
2023-02-19T17:22:17.850Z,36.10
2023-02-19T17:24:46.061Z,35.90
2023-02-19T17:27:15.564Z,35.80
2023-02-19T17:29:43.799Z,35.70
2023-02-19T17:32:11.946Z,36.00
2023-02-19T17:34:40.228Z,36.20
2023-02-19T17:37:08.306Z,36.50
2023-02-19T17:39:36.363Z,36.80
2023-02-19T17:42:05.306Z,37.10
2023-02-19T17:44:34.786Z,36.70
2023-02-19T17:47:02.805Z,36.50
2023-02-19T17:49:32.805Z,36.30
2023-02-19T17:52:00.912Z,36.10
2023-02-19T17:54:29.010Z,35.90
2023-02-19T17:56:57.157Z,35.90
2023-02-19T17:59:25.279Z,35.80
2023-02-19T18:01:55.260Z,35.90
2023-02-19T18:04:23.624Z,36.20
2023-02-19T18:06:54.000Z,36.30
2023-02-19T18:09:23.102Z,36.70
2023-02-19T18:11:51.302Z,37.00
2023-02-19T18:14:19.582Z,37.40
2023-02-19T18:16:50.013Z,37.50
2023-02-19T18:19:27.432Z,37.00
2023-02-19T18:21:55.628Z,36.80
2023-02-19T18:24:23.902Z,36.50
2023-02-19T18:26:52.240Z,36.40
2023-02-19T18:29:22.060Z,36.30
2023-02-19T18:31:50.407Z,36.10
2023-02-19T18:34:19.464Z,35.90
2023-02-19T18:36:49.949Z,35.90
2023-02-19T18:39:18.130Z,36.30
2023-02-19T18:41:49.301Z,36.50
2023-02-19T18:44:21.068Z,36.70
2023-02-19T18:46:49.266Z,37.20
2023-02-19T18:49:17.552Z,36.90
2023-02-19T18:51:45.729Z,36.60
2023-02-19T18:54:15.201Z,36.50
2023-02-19T18:56:44.145Z,36.30
2023-02-19T18:59:12.280Z,36.20
2023-02-19T19:01:40.582Z,36.00
2023-02-19T19:04:08.932Z,35.80
2023-02-19T19:06:36.966Z,35.70
2023-02-19T19:09:05.201Z,36.20
2023-02-19T19:11:34.630Z,36.30
2023-02-19T19:14:02.808Z,36.50
2023-02-19T19:16:30.932Z,36.90
2023-02-19T19:18:59.009Z,37.10
2023-02-19T19:21:27.144Z,36.60
2023-02-19T19:23:55.351Z,36.50
2023-02-19T19:26:23.405Z,36.30
2023-02-19T19:28:52.918Z,36.10
2023-02-19T19:31:21.286Z,36.00
2023-02-19T19:33:49.653Z,35.80
2023-02-19T19:36:20.115Z,35.90
2023-02-19T19:38:48.265Z,36.00
2023-02-19T19:41:16.412Z,36.30
2023-02-19T19:43:44.733Z,36.50
2023-02-19T19:46:18.934Z,36.80
2023-02-19T19:48:47.154Z,37.20
2023-02-19T19:51:15.255Z,36.60
2023-02-19T19:53:43.441Z,36.50
2023-02-19T19:56:11.545Z,36.30
2023-02-19T19:58:40.389Z,36.10
2023-02-19T20:01:08.466Z,36.00
2023-02-19T20:03:38.624Z,35.90
2023-02-19T20:06:07.234Z,35.70
2023-02-19T20:08:35.323Z,35.70
2023-02-19T20:11:03.813Z,36.10
2023-02-19T20:13:34.012Z,36.30
2023-02-19T20:16:02.104Z,36.60
2023-02-19T20:18:30.570Z,36.90
2023-02-19T20:21:00.009Z,37.20
2023-02-19T20:23:28.700Z,37.50
2023-02-19T20:25:57.633Z,37.20
2023-02-19T20:28:25.768Z,36.90
2023-02-19T20:30:53.865Z,36.60
2023-02-19T20:33:21.948Z,36.50
2023-02-19T20:35:50.111Z,36.30
2023-02-19T20:38:19.599Z,36.10
2023-02-19T20:40:47.954Z,36.00
2023-02-19T20:43:16.039Z,35.90
2023-02-19T20:45:45.905Z,36.20
2023-02-19T20:48:16.135Z,36.40
2023-02-19T20:50:44.159Z,36.50
2023-02-19T20:53:12.597Z,36.90
2023-02-19T20:55:42.008Z,37.10
2023-02-19T20:58:10.081Z,36.60
2023-02-19T21:00:38.167Z,36.50
2023-02-19T21:03:09.171Z,36.40
2023-02-19T21:05:38.582Z,36.20
2023-02-19T21:08:06.653Z,36.10
2023-02-19T21:10:34.720Z,35.90
2023-02-19T21:13:04.234Z,35.70
2023-02-19T21:15:32.312Z,35.90
2023-02-19T21:18:00.337Z,36.30
2023-02-19T21:20:28.814Z,37.00
2023-02-19T21:22:56.833Z,36.70
2023-02-19T21:25:24.944Z,37.00
2023-02-19T21:27:53.988Z,36.70
2023-02-19T21:30:23.499Z,36.50
2023-02-19T21:32:51.588Z,36.30
2023-02-19T21:35:19.667Z,36.20
2023-02-19T21:37:47.754Z,36.00
2023-02-19T21:40:16.086Z,35.90
2023-02-19T21:42:44.651Z,35.80
2023-02-19T21:45:12.719Z,35.60
2023-02-19T21:47:43.445Z,36.10
2023-02-19T21:50:12.204Z,36.30
2023-02-19T21:52:40.198Z,36.60
2023-02-19T21:55:08.723Z,37.00
2023-02-19T21:57:36.799Z,36.90
2023-02-19T22:00:05.654Z,36.50
2023-02-19T22:02:33.788Z,36.40
2023-02-19T22:05:03.486Z,36.20
2023-02-19T22:07:31.598Z,36.10
2023-02-19T22:09:59.621Z,35.90
2023-02-19T22:12:27.669Z,35.80
2023-02-19T22:14:55.710Z,35.60
2023-02-19T22:17:23.943Z,35.90
2023-02-19T22:19:52.014Z,36.10
2023-02-19T22:22:21.455Z,36.30
2023-02-19T22:24:49.599Z,36.60
2023-02-19T22:27:17.601Z,36.90
2023-02-19T22:29:45.614Z,37.40
2023-02-19T22:32:13.765Z,37.50
2023-02-19T22:34:41.973Z,36.90
2023-02-19T22:37:10.102Z,36.80
2023-02-19T22:39:39.659Z,36.50
2023-02-19T22:42:07.708Z,36.40
2023-02-19T22:44:36.191Z,36.20
2023-02-19T22:47:04.212Z,36.10
2023-02-19T22:49:32.220Z,35.90
2023-02-19T22:52:02.232Z,35.90
2023-02-19T22:54:30.265Z,36.30
2023-02-19T22:56:59.688Z,36.50
2023-02-19T22:59:27.727Z,37.50
2023-02-19T23:01:55.871Z,37.20
2023-02-19T23:04:24.800Z,37.10
2023-02-19T23:06:52.934Z,36.60
2023-02-19T23:09:22.193Z,36.50
2023-02-19T23:11:50.319Z,36.30
2023-02-19T23:14:20.424Z,36.10
2023-02-19T23:16:48.606Z,36.00
2023-02-19T23:19:16.804Z,35.90
2023-02-19T23:21:45.358Z,35.80
2023-02-19T23:24:14.330Z,36.10
2023-02-19T23:26:45.356Z,36.30
2023-02-19T23:29:15.399Z,36.50
2023-02-19T23:31:45.078Z,36.90
2023-02-19T23:34:13.192Z,37.20
2023-02-19T23:36:42.139Z,36.60
2023-02-19T23:39:10.831Z,36.50
2023-02-19T23:41:38.931Z,36.30
2023-02-19T23:44:07.163Z,36.20
2023-02-19T23:46:35.264Z,35.90
2023-02-19T23:49:06.754Z,35.90
2023-02-19T23:51:35.097Z,35.80
2023-02-19T23:54:03.170Z,35.90
2023-02-19T23:56:31.251Z,36.20
2023-02-19T23:58:59.281Z,36.50
